Time;durP1;ratioP1;P1;durP2;ratioP2;P2;SDS_P1;SDS_P2;PMS_P1;PMS_P2;Temp;Humidity;BMP_temperature;BMP_pressure;BME280_temperature;BME280_humidity;BME280_pressure;Samples;Min_cycle;Max_cycle;Signal;HPM_P1;HPM_P2
2021/04/25 00:01:10;;;;;;;1.38;0.82;;;;;;;;;;4971782;28;20026;-43
2021/04/25 00:03:35;;;;;;;0.95;0.70;;;;;;;;;;4972089;28;20117;-44
2021/04/25 00:06:01;;;;;;;1.50;0.93;;;;;;;;;;4971331;28;20031;-44
2021/04/25 00:08:26;;;;;;;2.08;1.10;;;;;;;;;;4971191;28;20158;-46
2021/04/25 00:10:52;;;;;;;8.50;0.73;;;;;;;;;;4970673;28;20034;-44
2021/04/25 00:13:17;;;;;;;3.97;1.67;;;;;;;;;;4971087;28;20038;-46
2021/04/25 00:15:42;;;;;;;4.57;1.65;;;;;;;;;;4970625;28;20106;-48
2021/04/25 00:18:08;;;;;;;2.38;1.30;;;;;;;;;;4969823;28;20534;-44
2021/04/25 00:20:33;;;;;;;2.25;0.82;;;;;;;;;;4972033;28;20058;-44
2021/04/25 00:22:58;;;;;;;2.35;1.30;;;;;;;;;;4970480;28;20477;-47
2021/04/25 00:25:24;;;;;;;1.20;0.77;;;;;;;;;;4971844;28;20517;-47
2021/04/25 00:27:49;;;;;;;1.13;0.85;;;;;;;;;;4976090;28;20047;-45
2021/04/25 00:30:15;;;;;;;2.17;1.02;;;;;;;;;;4969792;28;20027;-47
2021/04/25 00:32:41;;;;;;;1.58;1.00;;;;;;;;;;4970869;28;20037;-47
2021/04/25 00:35:07;;;;;;;1.88;1.20;;;;;;;;;;4977445;28;20026;-45
2021/04/25 00:37:32;;;;;;;2.67;1.08;;;;;;;;;;4972151;28;20023;-44
2021/04/25 00:39:58;;;;;;;1.27;1.08;;;;;;;;;;4971521;28;20514;-45
2021/04/25 00:42:23;;;;;;;2.40;1.38;;;;;;;;;;4969894;28;20418;-43
2021/04/25 00:44:48;;;;;;;1.00;0.85;;;;;;;;;;4972315;28;20118;-45
2021/04/25 00:47:14;;;;;;;2.20;1.38;;;;;;;;;;4970286;28;20034;-45
2021/04/25 00:49:39;;;;;;;1.98;1.25;;;;;;;;;;4976053;28;20046;-47
2021/04/25 00:52:05;;;;;;;1.60;1.02;;;;;;;;;;4975617;28;20443;-44
2021/04/25 00:54:31;;;;;;;1.88;1.20;;;;;;;;;;4971900;28;20030;-47
2021/04/25 00:56:56;;;;;;;2.28;1.25;;;;;;;;;;4969790;28;20027;-44
2021/04/25 00:59:22;;;;;;;2.33;1.02;;;;;;;;;;4969538;28;20460;-44
2021/04/25 01:01:47;;;;;;;1.60;1.00;;;;;;;;;;4969066;28;20027;-45
2021/04/25 01:04:12;;;;;;;1.75;1.08;;;;;;;;;;4972637;28;20035;-44
2021/04/25 01:06:38;;;;;;;2.17;1.33;;;;;;;;;;4970749;28;20035;-43
2021/04/25 01:09:04;;;;;;;2.58;0.93;;;;;;;;;;4969419;28;20097;-46
2021/04/25 01:11:30;;;;;;;4.55;2.65;;;;;;;;;;4970960;28;20150;-44
2021/04/25 01:13:55;;;;;;;2.72;1.85;;;;;;;;;;4971684;28;20113;-47
2021/04/25 01:16:20;;;;;;;1.10;1.00;;;;;;;;;;4970198;28;20041;-50
2021/04/25 01:18:46;;;;;;;0.77;0.47;;;;;;;;;;4968973;28;20170;-47
2021/04/25 01:21:11;;;;;;;1.05;0.63;;;;;;;;;;4961498;28;20065;-46
2021/04/25 01:23:37;;;;;;;5.07;2.60;;;;;;;;;;4971193;28;20161;-46
2021/04/25 01:26:02;;;;;;;3.45;1.67;;;;;;;;;;4974694;28;20026;-45
2021/04/25 01:28:28;;;;;;;2.30;1.20;;;;;;;;;;4973841;28;20078;-49
2021/04/25 01:30:55;;;;;;;3.45;1.52;;;;;;;;;;4974484;28;20023;-48
2021/04/25 01:33:20;;;;;;;3.45;1.08;;;;;;;;;;4972035;28;20035;-43
2021/04/25 01:35:46;;;;;;;1.52;1.08;;;;;;;;;;4970962;28;20364;-46
2021/04/25 01:38:11;;;;;;;2.15;1.40;;;;;;;;;;4972175;28;20080;-46
2021/04/25 01:40:36;;;;;;;2.75;1.05;;;;;;;;;;4974449;28;20022;-47
2021/04/25 01:43:02;;;;;;;4.80;1.38;;;;;;;;;;4974557;28;20043;-46
2021/04/25 01:45:28;;;;;;;1.65;0.90;;;;;;;;;;4971351;28;20041;-50
2021/04/25 01:47:55;;;;;;;1.38;0.77;;;;;;;;;;4972158;28;20058;-48
2021/04/25 01:50:21;;;;;;;2.88;1.20;;;;;;;;;;4970925;28;20042;-45
2021/04/25 01:52:47;;;;;;;1.15;0.65;;;;;;;;;;4972516;28;20078;-46
2021/04/25 01:55:13;;;;;;;2.15;0.95;;;;;;;;;;4971025;28;20076;-44
2021/04/25 01:57:39;;;;;;;2.38;1.02;;;;;;;;;;4972303;28;20022;-52
2021/04/25 02:00:05;;;;;;;2.75;1.15;;;;;;;;;;4973326;28;20068;-46
2021/04/25 02:02:30;;;;;;;3.40;1.27;;;;;;;;;;4970471;28;20078;-45
2021/04/25 02:04:56;;;;;;;1.48;1.02;;;;;;;;;;4973115;28;20681;-45
2021/04/25 02:07:21;;;;;;;1.58;0.88;;;;;;;;;;4972119;28;20058;-45
2021/04/25 02:09:46;;;;;;;2.35;1.15;;;;;;;;;;4971038;28;20446;-45
2021/04/25 02:12:14;;;;;;;1.38;1.00;;;;;;;;;;4975722;28;20026;-46
2021/04/25 02:14:39;;;;;;;0.98;0.75;;;;;;;;;;4975914;28;20046;-46
2021/04/25 02:17:05;;;;;;;1.58;1.23;;;;;;;;;;4971336;28;20039;-44
2021/04/25 02:19:30;;;;;;;3.13;1.33;;;;;;;;;;4971408;28;20038;-44
2021/04/25 02:21:55;;;;;;;1.15;0.77;;;;;;;;;;4971311;28;20073;-46
2021/04/25 02:24:21;;;;;;;2.35;0.98;;;;;;;;;;4970315;28;20125;-44
2021/04/25 02:26:46;;;;;;;2.20;1.17;;;;;;;;;;4973364;28;20122;-46
2021/04/25 02:29:11;;;;;;;2.13;1.30;;;;;;;;;;4973871;28;20050;-47
2021/04/25 02:31:37;;;;;;;3.03;1.77;;;;;;;;;;4973317;28;20052;-45
2021/04/25 02:34:03;;;;;;;2.15;1.52;;;;;;;;;;4973617;28;20387;-44
2021/04/25 02:36:28;;;;;;;1.20;0.80;;;;;;;;;;4968568;28;20018;-44
2021/04/25 02:38:53;;;;;;;1.40;1.10;;;;;;;;;;4970691;28;20019;-48
2021/04/25 02:41:19;;;;;;;1.77;1.27;;;;;;;;;;4970092;28;20026;-45
2021/04/25 02:43:44;;;;;;;1.23;0.77;;;;;;;;;;4971003;28;20031;-48
2021/04/25 02:46:09;;;;;;;3.03;1.40;;;;;;;;;;4971195;28;20054;-44
2021/04/25 02:48:34;;;;;;;2.33;0.95;;;;;;;;;;4970300;28;20479;-44
2021/04/25 02:51:00;;;;;;;0.75;0.50;;;;;;;;;;4970543;28;20482;-45
2021/04/25 02:53:25;;;;;;;5.47;2.25;;;;;;;;;;4971604;28;20038;-45
2021/04/25 02:55:50;;;;;;;3.60;2.03;;;;;;;;;;4970255;28;20027;-46
2021/04/25 02:58:16;;;;;;;2.30;1.27;;;;;;;;;;4970619;28;20117;-45
2021/04/25 03:00:41;;;;;;;1.85;0.98;;;;;;;;;;4959907;28;20096;-45
2021/04/25 03:03:06;;;;;;;1.67;1.27;;;;;;;;;;4975290;28;20038;-45
2021/04/25 03:05:32;;;;;;;1.63;0.65;;;;;;;;;;4974312;28;20459;-46
2021/04/25 03:07:57;;;;;;;10.10;0.75;;;;;;;;;;4971247;28;20511;-49
2021/04/25 03:10:23;;;;;;;1.63;0.60;;;;;;;;;;4970015;28;20384;-47
2021/04/25 03:12:49;;;;;;;0.88;0.50;;;;;;;;;;4974768;28;20033;-43
2021/04/25 03:15:15;;;;;;;1.67;1.02;;;;;;;;;;4975890;28;20054;-44
2021/04/25 03:17:41;;;;;;;0.95;0.75;;;;;;;;;;4974826;28;20015;-45
2021/04/25 03:20:07;;;;;;;0.88;0.60;;;;;;;;;;4975608;28;20793;-48
2021/04/25 03:22:33;;;;;;;0.77;0.50;;;;;;;;;;4976100;28;20088;-48
2021/04/25 03:24:59;;;;;;;1.52;0.60;;;;;;;;;;4976363;28;20430;-44
2021/04/25 03:27:24;;;;;;;0.93;0.50;;;;;;;;;;4973464;28;20034;-46
2021/04/25 03:29:49;;;;;;;1.27;0.43;;;;;;;;;;4973745;28;20031;-46
2021/04/25 03:32:15;;;;;;;1.35;0.88;;;;;;;;;;4973608;28;20026;-44
2021/04/25 03:34:40;;;;;;;1.95;0.82;;;;;;;;;;4974454;28;20595;-48
2021/04/25 03:37:05;;;;;;;1.38;0.60;;;;;;;;;;4976124;28;20058;-50
2021/04/25 03:39:31;;;;;;;3.47;0.75;;;;;;;;;;4977534;28;20019;-47
2021/04/25 03:41:56;;;;;;;1.13;0.52;;;;;;;;;;4973418;28;20019;-47
2021/04/25 03:44:21;;;;;;;1.52;0.98;;;;;;;;;;4975381;28;20058;-44
2021/04/25 03:46:47;;;;;;;3.25;1.02;;;;;;;;;;4973757;28;20085;-44
2021/04/25 03:49:19;;;;;;;1.67;0.57;;;;;;;;;;4974310;28;20118;-44
2021/04/25 03:51:44;;;;;;;2.38;1.05;;;;;;;;;;4972942;28;20049;-46
2021/04/25 03:54:10;;;;;;;4.43;1.25;;;;;;;;;;4976369;28;20031;-48
2021/04/25 03:56:35;;;;;;;0.98;0.60;;;;;;;;;;4974515;28;20477;-50
2021/04/25 03:59:01;;;;;;;2.55;1.23;;;;;;;;;;4973618;28;20027;-48
2021/04/25 04:01:26;;;;;;;2.40;0.82;;;;;;;;;;4979328;28;20605;-51
2021/04/25 04:03:51;;;;;;;2.95;1.00;;;;;;;;;;4978897;28;20034;-45
2021/04/25 04:06:16;;;;;;;4.90;1.08;;;;;;;;;;4976451;28;20027;-44
2021/04/25 04:08:42;;;;;;;1.85;1.00;;;;;;;;;;4973780;28;20423;-45
2021/04/25 04:11:07;;;;;;;2.50;1.10;;;;;;;;;;4973381;28;20102;-51
2021/04/25 04:13:32;;;;;;;2.05;0.95;;;;;;;;;;4974744;28;20034;-46
2021/04/25 04:15:58;;;;;;;3.30;2.30;;;;;;;;;;4972753;28;20054;-49
2021/04/25 04:18:23;;;;;;;3.90;1.77;;;;;;;;;;4977809;28;20023;-43
2021/04/25 04:20:49;;;;;;;2.78;1.13;;;;;;;;;;4974719;28;20027;-44
2021/04/25 04:23:14;;;;;;;1.67;1.05;;;;;;;;;;4974284;28;20019;-44
2021/04/25 04:25:39;;;;;;;1.75;1.27;;;;;;;;;;4972773;28;20110;-45
2021/04/25 04:28:05;;;;;;;1.55;0.70;;;;;;;;;;4974185;28;20398;-45
2021/04/25 04:30:30;;;;;;;2.35;0.75;;;;;;;;;;4972914;28;20497;-45
2021/04/25 04:32:55;;;;;;;1.05;0.68;;;;;;;;;;4976143;28;20086;-46
2021/04/25 04:35:21;;;;;;;1.17;0.80;;;;;;;;;;4974789;28;20022;-48
2021/04/25 04:37:46;;;;;;;4.40;1.10;;;;;;;;;;4974328;28;20106;-47
2021/04/25 04:40:12;;;;;;;2.42;1.10;;;;;;;;;;4961492;28;20479;-48
2021/04/25 04:42:37;;;;;;;1.00;0.70;;;;;;;;;;4973163;28;20506;-45
2021/04/25 04:45:03;;;;;;;0.98;0.40;;;;;;;;;;4975621;28;20480;-46
2021/04/25 04:47:28;;;;;;;1.20;0.73;;;;;;;;;;4973993;28;20027;-49
2021/04/25 04:49:54;;;;;;;1.17;0.68;;;;;;;;;;4972719;28;20027;-48
2021/04/25 04:52:19;;;;;;;1.00;0.82;;;;;;;;;;4975006;28;20035;-44
2021/04/25 04:54:45;;;;;;;1.95;1.33;;;;;;;;;;4978784;28;20023;-47
2021/04/25 04:57:12;;;;;;;0.88;0.73;;;;;;;;;;4978342;28;20376;-43
2021/04/25 04:59:37;;;;;;;1.33;0.80;;;;;;;;;;4972126;28;20105;-45
2021/04/25 05:02:03;;;;;;;1.58;1.02;;;;;;;;;;4974844;28;20082;-43
2021/04/25 05:04:28;;;;;;;1.88;1.00;;;;;;;;;;4973558;28;20484;-47
2021/04/25 05:06:53;;;;;;;0.30;0.30;;;;;;;;;;4972222;28;20458;-47
2021/04/25 05:09:19;;;;;;;0.95;0.85;;;;;;;;;;4972269;28;20085;-45
2021/04/25 05:11:44;;;;;;;0.80;0.70;;;;;;;;;;4971752;28;20027;-49
2021/04/25 05:14:09;;;;;;;1.25;0.77;;;;;;;;;;4972901;28;20041;-44
2021/04/25 05:16:35;;;;;;;1.45;0.70;;;;;;;;;;4974533;28;20029;-44
2021/04/25 05:19:00;;;;;;;4.30;0.40;;;;;;;;;;4972153;28;20440;-44
2021/04/25 05:21:25;;;;;;;2.33;0.57;;;;;;;;;;4973774;28;20023;-46
2021/04/25 05:23:51;;;;;;;1.85;0.50;;;;;;;;;;4976721;28;20082;-45
2021/04/25 05:26:16;;;;;;;1.35;0.90;;;;;;;;;;4972636;28;20383;-44
2021/04/25 05:28:41;;;;;;;1.25;0.52;;;;;;;;;;4974245;28;20043;-44
2021/04/25 05:31:06;;;;;;;1.08;0.60;;;;;;;;;;4977163;28;20034;-45
2021/04/25 05:33:32;;;;;;;1.33;0.80;;;;;;;;;;4972947;28;20030;-44
2021/04/25 05:35:57;;;;;;;3.70;1.30;;;;;;;;;;4971649;28;20065;-46
2021/04/25 05:38:22;;;;;;;3.35;1.27;;;;;;;;;;4976143;28;20027;-49
2021/04/25 05:40:48;;;;;;;1.20;0.82;;;;;;;;;;4981327;28;20065;-46
2021/04/25 05:43:13;;;;;;;1.23;0.65;;;;;;;;;;4974751;28;20034;-44
2021/04/25 05:45:38;;;;;;;1.80;1.23;;;;;;;;;;4972807;28;20027;-44
2021/04/25 05:48:04;;;;;;;9.70;1.92;;;;;;;;;;4975564;28;20034;-46
2021/04/25 05:50:30;;;;;;;5.07;2.42;;;;;;;;;;4972679;28;20113;-45
2021/04/25 05:52:56;;;;;;;6.82;2.58;;;;;;;;;;4972008;28;20026;-45
2021/04/25 05:55:21;;;;;;;1.92;1.02;;;;;;;;;;4970861;28;20149;-45
2021/04/25 05:57:48;;;;;;;2.05;1.45;;;;;;;;;;4971530;28;20022;-46
2021/04/25 06:00:15;;;;;;;4.25;2.15;;;;;;;;;;4972485;28;20019;-44
2021/04/25 06:02:40;;;;;;;4.65;2.38;;;;;;;;;;4971205;28;20146;-47
2021/04/25 06:05:06;;;;;;;3.38;2.45;;;;;;;;;;4972540;28;20101;-43
2021/04/25 06:07:31;;;;;;;2.25;1.73;;;;;;;;;;4972506;28;20054;-46
2021/04/25 06:09:56;;;;;;;9.48;7.75;;;;;;;;;;4971667;28;20045;-45
2021/04/25 06:12:22;;;;;;;51.33;34.95;;;;;;;;;;4970768;28;20057;-46
2021/04/25 06:14:47;;;;;;;30.45;23.55;;;;;;;;;;4971044;28;20504;-45
2021/04/25 06:17:12;;;;;;;19.58;15.60;;;;;;;;;;4975222;28;20026;-44
2021/04/25 06:19:38;;;;;;;16.85;14.18;;;;;;;;;;4975405;28;20030;-45
2021/04/25 06:22:03;;;;;;;11.07;7.32;;;;;;;;;;4972341;28;20030;-44
2021/04/25 06:24:29;;;;;;;7.30;6.03;;;;;;;;;;4971527;28;20492;-44
2021/04/25 06:26:55;;;;;;;12.73;10.02;;;;;;;;;;4972730;28;20058;-45
2021/04/25 06:29:20;;;;;;;13.05;8.52;;;;;;;;;;4970826;28;20089;-46
2021/04/25 06:31:45;;;;;;;12.60;8.82;;;;;;;;;;4970020;28;20464;-33
2021/04/25 06:34:11;;;;;;;11.82;8.13;;;;;;;;;;4971693;28;20027;-33
2021/04/25 06:36:41;;;;;;;12.73;9.13;;;;;;;;;;4955986;28;20178;-33
2021/04/25 06:39:06;;;;;;;14.35;13.07;;;;;;;;;;4970436;28;20038;-33
2021/04/25 06:41:31;;;;;;;17.02;15.30;;;;;;;;;;4970863;28;20026;-31
2021/04/25 06:43:57;;;;;;;18.35;14.93;;;;;;;;;;4970890;28;20479;-45
2021/04/25 06:46:23;;;;;;;17.60;14.27;;;;;;;;;;4969007;28;20404;-40
2021/04/25 06:48:48;;;;;;;15.43;12.80;;;;;;;;;;4969323;28;20507;-39
2021/04/25 06:51:15;;;;;;;13.15;11.80;;;;;;;;;;4968372;28;20808;-40
2021/04/25 06:53:40;;;;;;;15.30;13.48;;;;;;;;;;4969679;28;20046;-38
2021/04/25 06:56:05;;;;;;;18.45;11.27;;;;;;;;;;4955839;28;20019;-43
2021/04/25 06:58:31;;;;;;;17.67;10.98;;;;;;;;;;4970752;28;20026;-38
2021/04/25 07:00:56;;;;;;;16.35;10.05;;;;;;;;;;4955146;28;20047;-41
2021/04/25 07:03:21;;;;;;;29.48;12.05;;;;;;;;;;4968196;28;20039;-39
2021/04/25 07:05:47;;;;;;;19.20;10.05;;;;;;;;;;4974292;28;20026;-37
2021/04/25 07:08:13;;;;;;;19.15;9.35;;;;;;;;;;4973474;28;20062;-39
2021/04/25 07:10:38;;;;;;;15.00;8.82;;;;;;;;;;4973835;28;20684;-39
2021/04/25 07:13:04;;;;;;;12.38;9.98;;;;;;;;;;4967806;28;20031;-39
2021/04/25 07:15:29;;;;;;;8.43;7.55;;;;;;;;;;4968100;28;20038;-39
2021/04/25 07:17:55;;;;;;;14.48;8.55;;;;;;;;;;4968370;28;20026;-41
2021/04/25 07:20:21;;;;;;;11.05;6.82;;;;;;;;;;4970051;28;20035;-38
2021/04/25 07:22:47;;;;;;;16.02;10.48;;;;;;;;;;4972161;28;20050;-38
2021/04/25 07:25:12;;;;;;;12.82;10.18;;;;;;;;;;4971389;28;20038;-38
2021/04/25 07:27:38;;;;;;;19.60;11.43;;;;;;;;;;4969257;28;20356;-39
2021/04/25 07:30:07;;;;;;;14.68;10.95;;;;;;;;;;4968428;28;20031;-39
2021/04/25 07:32:32;;;;;;;16.70;10.48;;;;;;;;;;4969548;28;20546;-40
2021/04/25 07:34:58;;;;;;;23.73;14.60;;;;;;;;;;4967300;28;20069;-40
2021/04/25 07:37:23;;;;;;;17.25;13.93;;;;;;;;;;4968222;28;20046;-43
2021/04/25 07:39:48;;;;;;;16.27;13.95;;;;;;;;;;4970433;28;20034;-41
2021/04/25 07:42:14;;;;;;;16.40;10.38;;;;;;;;;;4966765;28;20023;-41
2021/04/25 07:44:41;;;;;;;13.15;11.27;;;;;;;;;;4968988;28;20027;-44
2021/04/25 07:47:07;;;;;;;18.00;12.70;;;;;;;;;;4970997;28;20092;-45
2021/04/25 07:49:32;;;;;;;14.65;11.77;;;;;;;;;;4968963;28;20110;-39
2021/04/25 07:51:58;;;;;;;13.60;12.18;;;;;;;;;;4970869;28;20023;-41
2021/04/25 07:54:24;;;;;;;14.15;9.75;;;;;;;;;;4966459;28;20081;-38
2021/04/25 07:56:49;;;;;;;10.48;7.78;;;;;;;;;;4968924;28;20101;-39
2021/04/25 07:59:14;;;;;;;7.88;5.75;;;;;;;;;;4972203;28;20092;-38
2021/04/25 08:01:40;;;;;;;9.65;4.45;;;;;;;;;;4974821;28;20459;-39
2021/04/25 08:04:05;;;;;;;11.88;4.65;;;;;;;;;;4968521;28;20133;-42
2021/04/25 08:06:30;;;;;;;3.90;2.47;;;;;;;;;;4964366;28;20023;-41
2021/04/25 08:08:56;;;;;;;4.82;4.22;;;;;;;;;;4971095;28;20058;-38
2021/04/25 08:11:21;;;;;;;4.03;3.63;;;;;;;;;;4956658;28;20026;-38
2021/04/25 08:13:47;;;;;;;5.82;4.30;;;;;;;;;;4970658;28;20041;-41
2021/04/25 08:16:12;;;;;;;4.50;3.55;;;;;;;;;;4970741;28;20019;-39
2021/04/25 08:18:38;;;;;;;8.35;5.75;;;;;;;;;;4969144;28;20074;-40
2021/04/25 08:21:03;;;;;;;7.13;3.45;;;;;;;;;;4968936;28;20023;-39
2021/04/25 08:23:29;;;;;;;4.22;3.80;;;;;;;;;;4972342;28;20030;-39
2021/04/25 08:25:54;;;;;;;5.97;4.55;;;;;;;;;;4969390;28;20053;-38
2021/04/25 08:28:20;;;;;;;8.07;4.75;;;;;;;;;;4968159;28;20035;-40
2021/04/25 08:30:46;;;;;;;8.98;5.35;;;;;;;;;;4970646;28;20112;-40
2021/04/25 08:33:11;;;;;;;7.05;4.32;;;;;;;;;;4972550;28;20418;-39
2021/04/25 08:35:36;;;;;;;13.82;6.03;;;;;;;;;;4968119;28;20034;-41
2021/04/25 08:38:02;;;;;;;9.95;6.05;;;;;;;;;;4970292;28;20042;-38
2021/04/25 08:40:27;;;;;;;8.80;5.68;;;;;;;;;;4971084;28;20029;-39
2021/04/25 08:42:53;;;;;;;6.85;4.93;;;;;;;;;;4969390;28;20030;-41
2021/04/25 08:45:18;;;;;;;6.30;4.90;;;;;;;;;;4967790;28;20031;-41
2021/04/25 08:47:52;;;;;;;4.93;3.13;;;;;;;;;;4967723;28;20633;-43
2021/04/25 08:50:17;;;;;;;2.63;1.70;;;;;;;;;;4970367;28;20073;-43
2021/04/25 08:52:44;;;;;;;3.72;1.58;;;;;;;;;;4967810;28;20395;-42
2021/04/25 08:55:10;;;;;;;4.80;3.17;;;;;;;;;;4966958;28;20022;-41
2021/04/25 08:57:35;;;;;;;4.13;2.88;;;;;;;;;;4967496;28;20427;-41
2021/04/25 09:00:00;;;;;;;4.45;2.28;;;;;;;;;;4970743;28;20018;-38
2021/04/25 09:02:27;;;;;;;2.10;1.38;;;;;;;;;;4952335;28;20023;-37
2021/04/25 09:04:52;;;;;;;2.20;1.13;;;;;;;;;;4969394;28;20400;-43
2021/04/25 09:07:18;;;;;;;2.13;1.23;;;;;;;;;;4969736;28;20121;-38
2021/04/25 09:09:45;;;;;;;5.25;2.65;;;;;;;;;;4972494;28;20506;-41
2021/04/25 09:12:12;;;;;;;2.75;1.63;;;;;;;;;;4970762;28;20030;-39
2021/04/25 09:14:38;;;;;;;5.25;2.53;;;;;;;;;;4956597;28;20053;-41
2021/04/25 09:17:04;;;;;;;1.15;0.85;;;;;;;;;;4972045;28;20035;-40
2021/04/25 09:19:48;;;;;;;2.50;1.50;;;;;;;;;;4968335;28;20582;-41
2021/04/25 09:22:14;;;;;;;2.63;1.40;;;;;;;;;;4972448;28;20031;-38
2021/04/25 09:24:39;;;;;;;5.93;1.67;;;;;;;;;;4970606;28;20077;-39
2021/04/25 09:27:05;;;;;;;11.55;2.75;;;;;;;;;;4969177;28;20116;-39
2021/04/25 09:29:49;;;;;;;4.30;2.25;;;;;;;;;;4970843;28;20121;-41
2021/04/25 09:32:29;;;;;;;2.58;1.58;;;;;;;;;;4967582;28;20062;-43
2021/04/25 09:35:08;;;;;;;11.43;2.23;;;;;;;;;;4954203;28;20050;-45
2021/04/25 09:37:34;;;;;;;3.58;2.42;;;;;;;;;;4970674;28;20027;-43
2021/04/25 09:40:09;;;;;;;2.75;1.58;;;;;;;;;;4971455;28;20019;-41
2021/04/25 09:42:53;;;;;;;4.68;1.88;;;;;;;;;;4971152;28;20518;-40
2021/04/25 09:45:27;;;;;;;3.10;1.88;;;;;;;;;;4968421;28;20428;-40
2021/04/25 09:47:52;;;;;;;1.80;1.45;;;;;;;;;;4971674;28;20034;-40
2021/04/25 09:50:18;;;;;;;3.20;1.52;;;;;;;;;;4970081;28;20014;-45
2021/04/25 09:52:48;;;;;;;4.18;2.55;;;;;;;;;;4961227;28;20027;-43
2021/04/25 09:55:15;;;;;;;4.85;2.90;;;;;;;;;;4970826;28;20611;-42
2021/04/25 09:57:40;;;;;;;3.45;1.80;;;;;;;;;;4973522;28;20100;-42
2021/04/25 10:00:06;;;;;;;47.83;5.28;;;;;;;;;;4962127;28;20034;-41
2021/04/25 10:02:32;;;;;;;4.78;3.05;;;;;;;;;;4972424;28;20035;-42
2021/04/25 10:05:05;;;;;;;8.63;3.15;;;;;;;;;;4970668;28;20049;-42
2021/04/25 10:07:34;;;;;;;4.68;2.70;;;;;;;;;;4970171;28;20055;-40
2021/04/25 10:10:10;;;;;;;6.43;2.90;;;;;;;;;;4970604;28;20470;-45
2021/04/25 10:12:36;;;;;;;11.25;3.72;;;;;;;;;;4970636;28;20396;-39
2021/04/25 10:15:02;;;;;;;3.50;2.47;;;;;;;;;;4953789;28;20015;-41
2021/04/25 10:17:27;;;;;;;4.22;2.88;;;;;;;;;;4970347;28;20085;-40
2021/04/25 10:19:53;;;;;;;3.88;2.38;;;;;;;;;;4969746;28;20073;-42
2021/04/25 10:22:19;;;;;;;4.47;2.72;;;;;;;;;;4973605;28;20033;-43
2021/04/25 10:24:44;;;;;;;3.78;2.45;;;;;;;;;;4968392;28;20034;-43
2021/04/25 10:27:12;;;;;;;9.10;2.67;;;;;;;;;;4971904;28;20022;-40
2021/04/25 10:29:38;;;;;;;6.30;1.45;;;;;;;;;;4965265;28;20033;-39
2021/04/25 10:32:05;;;;;;;6.55;1.55;;;;;;;;;;4969230;28;20075;-41
2021/04/25 10:34:30;;;;;;;2.45;1.38;;;;;;;;;;4974186;28;20031;-42
2021/04/25 10:36:57;;;;;;;8.55;2.60;;;;;;;;;;4974273;28;20031;-38
2021/04/25 10:39:42;;;;;;;17.02;1.90;;;;;;;;;;4970378;28;20034;-38
2021/04/25 10:42:32;;;;;;;5.35;3.40;;;;;;;;;;4970563;28;20061;-42
2021/04/25 10:44:58;;;;;;;9.05;2.70;;;;;;;;;;4958156;28;20085;-38
2021/04/25 10:47:23;;;;;;;5.13;2.17;;;;;;;;;;4969041;28;20060;-38
2021/04/25 10:49:49;;;;;;;2.90;1.55;;;;;;;;;;4979937;28;20158;-43
2021/04/25 10:52:20;;;;;;;4.60;2.50;;;;;;;;;;4974720;28;20085;-43
2021/04/25 10:55:04;;;;;;;3.40;2.13;;;;;;;;;;4970132;28;20044;-46
2021/04/25 10:57:30;;;;;;;1.52;1.25;;;;;;;;;;4968417;28;20029;-43
2021/04/25 11:00:15;;;;;;;3.40;1.77;;;;;;;;;;4970981;28;20027;-39
2021/04/25 11:02:47;;;;;;;3.28;1.45;;;;;;;;;;4968369;28;20027;-40
2021/04/25 11:05:15;;;;;;;3.33;1.98;;;;;;;;;;4968820;28;20117;-38
2021/04/25 11:07:41;;;;;;;3.47;2.42;;;;;;;;;;4967765;28;20512;-38
2021/04/25 11:10:07;;;;;;;2.92;2.65;;;;;;;;;;4970553;28;20027;-41
2021/04/25 11:12:40;;;;;;;3.05;2.00;;;;;;;;;;4968442;28;20058;-38
2021/04/25 11:15:06;;;;;;;8.88;1.45;;;;;;;;;;4970479;28;20029;-39
2021/04/25 11:17:32;;;;;;;3.78;1.30;;;;;;;;;;4966905;28;20027;-38
2021/04/25 11:19:57;;;;;;;8.18;3.25;;;;;;;;;;4969274;28;20690;-39
2021/04/25 11:22:41;;;;;;;2.38;1.77;;;;;;;;;;4969412;28;20453;-43
2021/04/25 11:25:25;;;;;;;5.03;1.95;;;;;;;;;;4971222;28;20023;-42
2021/04/25 11:27:50;;;;;;;4.43;2.15;;;;;;;;;;4970327;28;20642;-38
2021/04/25 11:30:32;;;;;;;3.78;2.40;;;;;;;;;;4957819;28;20054;-40
2021/04/25 11:33:18;;;;;;;5.03;1.77;;;;;;;;;;4969877;28;20113;-39
2021/04/25 11:35:43;;;;;;;2.97;1.73;;;;;;;;;;4972502;28;20133;-39
2021/04/25 11:38:09;;;;;;;3.97;2.17;;;;;;;;;;4972285;28;20427;-39
2021/04/25 11:40:34;;;;;;;4.45;1.45;;;;;;;;;;4974754;28;20054;-40
2021/04/25 11:42:59;;;;;;;2.42;1.48;;;;;;;;;;4975418;28;20392;-44
2021/04/25 11:45:25;;;;;;;3.17;1.45;;;;;;;;;;4976460;28;20058;-38
2021/04/25 11:47:55;;;;;;;2.08;1.27;;;;;;;;;;4975789;28;20034;-39
2021/04/25 11:50:25;;;;;;;2.63;1.63;;;;;;;;;;4974299;28;20030;-39
2021/04/25 11:52:51;;;;;;;6.32;2.17;;;;;;;;;;4971580;28;20035;-40
2021/04/25 11:55:17;;;;;;;7.10;2.20;;;;;;;;;;4971176;28;20034;-39
2021/04/25 11:57:48;;;;;;;2.80;1.73;;;;;;;;;;4972059;28;20035;-40
2021/04/25 12:00:16;;;;;;;4.47;2.35;;;;;;;;;;4973340;28;20487;-40
2021/04/25 12:02:44;;;;;;;4.60;2.22;;;;;;;;;;4972423;28;20477;-39
2021/04/25 12:05:14;;;;;;;3.42;1.73;;;;;;;;;;4973698;28;20026;-42
2021/04/25 12:08:05;;;;;;;3.22;1.27;;;;;;;;;;4976438;28;20065;-39
2021/04/25 12:10:39;;;;;;;4.35;2.35;;;;;;;;;;4967539;28;20045;-41
2021/04/25 12:13:29;;;;;;;7.53;3.28;;;;;;;;;;4971041;28;20035;-39
2021/04/25 12:15:55;;;;;;;4.53;2.72;;;;;;;;;;4974593;28;20026;-40
2021/04/25 12:18:25;;;;;;;5.25;2.33;;;;;;;;;;4980848;28;20056;-41
2021/04/25 12:20:58;;;;;;;5.28;2.38;;;;;;;;;;4977491;28;20018;-42
2021/04/25 12:23:25;;;;;;;13.32;3.55;;;;;;;;;;4972727;28;20115;-38
2021/04/25 12:25:51;;;;;;;5.22;2.78;;;;;;;;;;4975606;28;20022;-39
2021/04/25 12:28:17;;;;;;;5.13;2.58;;;;;;;;;;4971786;28;20062;-41
2021/04/25 12:30:45;;;;;;;5.85;2.03;;;;;;;;;;4971922;28;20114;-44
2021/04/25 12:33:18;;;;;;;4.53;2.90;;;;;;;;;;4976441;28;20097;-39
2021/04/25 12:35:45;;;;;;;13.57;3.05;;;;;;;;;;4973378;28;20655;-41
2021/04/25 12:38:14;;;;;;;9.48;2.40;;;;;;;;;;4974788;28;20034;-39
2021/04/25 12:40:40;;;;;;;5.35;2.65;;;;;;;;;;4975415;28;20073;-41
2021/04/25 12:43:05;;;;;;;4.85;2.00;;;;;;;;;;4973822;28;20545;-39
2021/04/25 12:45:30;;;;;;;2.70;1.73;;;;;;;;;;4972948;28;20387;-39
2021/04/25 12:47:56;;;;;;;9.35;3.47;;;;;;;;;;4969853;28;20034;-39
2021/04/25 12:50:21;;;;;;;5.10;1.92;;;;;;;;;;4972674;28;20050;-41
2021/04/25 12:52:46;;;;;;;3.10;1.77;;;;;;;;;;4975942;28;20030;-41
2021/04/25 12:55:23;;;;;;;3.10;2.55;;;;;;;;;;4971490;28;20035;-42
2021/04/25 12:57:48;;;;;;;3.30;2.08;;;;;;;;;;4975312;28;20491;-40
2021/04/25 13:00:27;;;;;;;3.53;1.80;;;;;;;;;;4973651;28;20055;-39
2021/04/25 13:02:52;;;;;;;9.93;2.47;;;;;;;;;;4972781;28;20029;-39
2021/04/25 13:05:17;;;;;;;3.10;2.17;;;;;;;;;;4974253;28;20708;-46
2021/04/25 13:07:44;;;;;;;4.05;1.70;;;;;;;;;;4970070;28;20519;-42
2021/04/25 13:10:14;;;;;;;3.42;2.15;;;;;;;;;;4972577;28;20047;-40
2021/04/25 13:12:41;;;;;;;6.28;2.63;;;;;;;;;;4972548;28;20022;-40
2021/04/25 13:15:11;;;;;;;7.32;2.47;;;;;;;;;;4971362;28;20069;-41
2021/04/25 13:17:40;;;;;;;5.90;2.97;;;;;;;;;;4973462;28;20050;-41
2021/04/25 13:20:19;;;;;;;5.70;1.85;;;;;;;;;;4972631;28;20117;-39
2021/04/25 13:23:10;;;;;;;13.00;2.03;;;;;;;;;;4969995;28;20047;-39
2021/04/25 13:25:37;;;;;;;2.65;1.67;;;;;;;;;;4967235;28;20137;-39
2021/04/25 13:28:04;;;;;;;10.45;2.33;;;;;;;;;;4972844;28;20053;-39
2021/04/25 13:30:49;;;;;;;6.05;2.53;;;;;;;;;;4969921;28;20200;-42
2021/04/25 13:33:15;;;;;;;8.98;1.50;;;;;;;;;;4970087;28;20178;-42
2021/04/25 13:35:42;;;;;;;7.13;2.90;;;;;;;;;;4957037;28;20055;-38
2021/04/25 13:38:08;;;;;;;14.05;2.17;;;;;;;;;;4970770;28;20023;-38
2021/04/25 13:40:34;;;;;;;5.00;2.03;;;;;;;;;;4970711;28;20037;-40
2021/04/25 13:43:00;;;;;;;3.60;1.80;;;;;;;;;;4980066;28;20356;-41
2021/04/25 13:45:26;;;;;;;8.32;2.70;;;;;;;;;;4958988;28;20502;-43
2021/04/25 13:47:51;;;;;;;5.57;1.95;;;;;;;;;;4970932;28;20026;-39
2021/04/25 13:50:17;;;;;;;2.60;1.50;;;;;;;;;;4970886;28;20031;-40
2021/04/25 13:52:42;;;;;;;4.50;2.30;;;;;;;;;;4970143;28;20034;-43
2021/04/25 13:55:08;;;;;;;7.70;2.35;;;;;;;;;;4969778;28;20026;-42
2021/04/25 13:57:33;;;;;;;4.97;1.77;;;;;;;;;;4969329;28;20113;-41
2021/04/25 13:59:59;;;;;;;6.85;1.95;;;;;;;;;;4970473;28;20031;-42
2021/04/25 14:02:24;;;;;;;10.98;3.08;;;;;;;;;;4970275;28;20042;-41
2021/04/25 14:04:50;;;;;;;9.45;2.03;;;;;;;;;;4975612;28;20035;-40
2021/04/25 14:07:15;;;;;;;3.35;2.13;;;;;;;;;;4970611;28;20090;-39
2021/04/25 14:09:40;;;;;;;6.75;2.35;;;;;;;;;;4969539;28;20141;-41
2021/04/25 14:12:06;;;;;;;8.23;2.50;;;;;;;;;;4972131;28;20027;-43
2021/04/25 14:14:31;;;;;;;3.60;2.78;;;;;;;;;;4970687;28;20031;-40
2021/04/25 14:16:57;;;;;;;10.77;3.05;;;;;;;;;;4976288;28;20049;-42
2021/04/25 14:19:24;;;;;;;10.65;2.13;;;;;;;;;;4960512;28;20384;-41
2021/04/25 14:21:49;;;;;;;3.97;1.90;;;;;;;;;;4971545;28;20434;-42
2021/04/25 14:24:15;;;;;;;9.68;3.03;;;;;;;;;;4973075;28;20061;-41
2021/04/25 14:26:42;;;;;;;6.72;2.05;;;;;;;;;;4971215;28;20081;-41
2021/04/25 14:29:07;;;;;;;6.63;2.63;;;;;;;;;;4971826;28;20086;-42
2021/04/25 14:31:32;;;;;;;4.57;2.72;;;;;;;;;;4970102;28;20120;-41
2021/04/25 14:33:58;;;;;;;4.45;1.40;;;;;;;;;;4970633;28;20121;-38
2021/04/25 14:36:23;;;;;;;2.38;1.63;;;;;;;;;;4972781;28;20031;-38
2021/04/25 14:38:48;;;;;;;4.57;1.88;;;;;;;;;;4968190;28;20023;-39